Time;durP1;ratioP1;P1;durP2;ratioP2;P2;SDS_P1;SDS_P2;PMS_P1;PMS_P2;Temp;Humidity;BMP_temperature;BMP_pressure;BME280_temperature;BME280_humidity;BME280_pressure;Samples;Min_cycle;Max_cycle;Signal;HPM_P1;HPM_P2
2023/08/30 00:00:25;;;;;;;11.20;5.22;;;;;;;16.26;95.75;100756.84;4793681;29;20071;-65
2023/08/30 00:03:13;;;;;;;8.48;4.90;;;;;;;16.24;95.84;100761.88;4790848;29;20075;-64
2023/08/30 00:06:05;;;;;;;7.90;4.85;;;;;;;16.21;95.52;100760.53;4782480;29;20164;-64
2023/08/30 00:08:53;;;;;;;13.38;5.47;;;;;;;16.15;95.50;100757.06;4805128;29;20062;-64
2023/08/30 00:11:41;;;;;;;9.18;5.05;;;;;;;16.08;95.61;100756.66;4828536;29;20107;-57
2023/08/30 00:14:30;;;;;;;9.25;5.57;;;;;;;16.03;95.30;100743.03;4829061;29;20106;-61
2023/08/30 00:17:19;;;;;;;8.23;5.03;;;;;;;15.99;95.77;100747.50;4812463;29;20084;-63
2023/08/30 00:20:11;;;;;;;7.95;4.55;;;;;;;15.98;96.85;100748.63;4821904;29;20552;-60
2023/08/30 00:22:59;;;;;;;7.93;4.80;;;;;;;16.01;96.51;100750.78;4838147;29;20055;-57
2023/08/30 00:25:48;;;;;;;6.38;4.00;;;;;;;16.05;96.75;100745.50;4826609;29;20330;-64
2023/08/30 00:28:36;;;;;;;9.23;4.82;;;;;;;16.06;95.49;100739.66;4810054;29;20082;-64
2023/08/30 00:31:24;;;;;;;6.85;4.30;;;;;;;16.06;95.68;100745.16;4796582;29;20065;-65
2023/08/30 00:34:13;;;;;;;7.10;4.57;;;;;;;16.05;95.66;100738.06;4810521;29;20496;-64
2023/08/30 00:37:01;;;;;;;8.32;4.90;;;;;;;16.04;94.16;100735.59;4771237;29;20062;-63
2023/08/30 00:39:49;;;;;;;8.23;5.13;;;;;;;16.03;94.13;100732.03;4810548;29;20127;-64
2023/08/30 00:42:37;;;;;;;8.00;4.72;;;;;;;16.01;93.76;100730.72;4809323;29;20134;-64
2023/08/30 00:45:27;;;;;;;8.57;4.95;;;;;;;16.00;92.95;100721.66;4807303;29;20082;-65
2023/08/30 00:48:16;;;;;;;7.78;4.85;;;;;;;15.99;93.60;100725.53;4810558;29;20099;-64
2023/08/30 00:51:04;;;;;;;8.65;5.10;;;;;;;15.98;93.95;100727.47;4795342;29;20633;-64
2023/08/30 00:53:54;;;;;;;9.40;5.60;;;;;;;15.97;93.83;100723.09;4793860;29;20051;-64
2023/08/30 00:56:42;;;;;;;9.85;5.55;;;;;;;15.95;93.70;100721.78;4797189;29;20145;-64
2023/08/30 00:59:32;;;;;;;9.85;5.18;;;;;;;15.94;95.34;100723.69;4796438;29;20612;-63
2023/08/30 01:02:20;;;;;;;8.27;4.93;;;;;;;15.86;94.97;100718.94;4808473;29;20192;-62
2023/08/30 01:05:09;;;;;;;10.00;5.47;;;;;;;15.78;94.01;100719.66;4766649;30;20543;-64
2023/08/30 01:07:57;;;;;;;8.68;5.43;;;;;;;15.69;94.17;100722.25;4790704;29;20710;-65
2023/08/30 01:11:13;;;;;;;8.80;5.82;;;;;;;15.65;95.01;100720.41;4799389;29;20058;-64
2023/08/30 01:14:22;;;;;;;9.80;5.57;;;;;;;15.62;95.16;100724.59;4795239;29;20097;-65
2023/08/30 01:17:14;;;;;;;8.60;5.63;;;;;;;15.53;94.73;100718.97;4771000;29;20055;-65
2023/08/30 01:20:14;;;;;;;10.57;6.18;;;;;;;15.50;95.27;100713.28;4819464;29;20053;-63
2023/08/30 01:23:22;;;;;;;11.43;5.97;;;;;;;15.51;95.42;100709.41;4807156;29;20050;-63
2023/08/30 01:26:41;;;;;;;7.43;5.05;;;;;;;15.55;95.85;100704.94;4793931;29;20055;-64
2023/08/30 01:29:30;;;;;;;11.73;6.43;;;;;;;15.58;95.56;100709.84;4783750;29;20431;-66
2023/08/30 01:32:20;;;;;;;9.77;6.28;;;;;;;15.53;95.32;100704.44;4796368;29;20059;-64
2023/08/30 01:35:08;;;;;;;9.35;5.28;;;;;;;15.50;95.68;100700.38;4782955;29;20043;-63
2023/08/30 01:37:57;;;;;;;10.25;5.60;;;;;;;15.49;96.13;100697.91;4795841;29;20051;-63
2023/08/30 01:40:46;;;;;;;13.27;7.03;;;;;;;15.48;94.95;100704.53;4807687;29;20472;-63
2023/08/30 01:43:34;;;;;;;10.30;6.78;;;;;;;15.45;96.61;100705.97;4783403;29;20050;-64
2023/08/30 01:46:25;;;;;;;9.13;5.65;;;;;;;15.40;95.61;100702.50;4794208;29;20062;-65
2023/08/30 01:49:13;;;;;;;10.73;7.25;;;;;;;15.34;95.80;100704.53;4796343;29;20058;-64
2023/08/30 01:52:01;;;;;;;9.13;5.82;;;;;;;15.28;95.47;100706.56;4808923;29;20055;-64
2023/08/30 01:54:52;;;;;;;10.35;6.28;;;;;;;15.25;96.51;100703.59;4806437;29;20122;-65
2023/08/30 01:57:40;;;;;;;11.40;6.70;;;;;;;15.20;96.63;100700.94;4789300;29;20047;-64
2023/08/30 02:00:28;;;;;;;9.07;6.00;;;;;;;15.20;97.08;100703.69;4790520;29;20082;-62
2023/08/30 02:03:16;;;;;;;11.75;6.78;;;;;;;15.18;96.83;100703.19;4809931;29;20059;-62
2023/08/30 02:06:11;;;;;;;12.10;6.05;;;;;;;15.14;96.79;100705.72;4785911;29;20073;-63
2023/08/30 02:09:04;;;;;;;10.82;6.82;;;;;;;15.09;96.79;100711.28;4830089;29;20076;-63
2023/08/30 02:11:56;;;;;;;10.93;6.28;;;;;;;15.01;97.20;100701.00;4794747;29;20065;-65
2023/08/30 02:14:46;;;;;;;10.18;6.57;;;;;;;14.98;97.78;100699.66;4801845;29;20524;-63
2023/08/30 02:17:36;;;;;;;12.98;7.28;;;;;;;14.94;97.48;100690.44;4794618;29;20590;-64
2023/08/30 02:20:25;;;;;;;10.13;6.28;;;;;;;14.96;98.42;100692.84;4803203;29;20082;-63
2023/08/30 02:23:12;;;;;;;10.18;6.63;;;;;;;14.99;97.91;100693.06;4787275;29;20074;-64
2023/08/30 02:26:05;;;;;;;11.95;7.45;;;;;;;14.96;97.67;100692.84;4809496;29;20043;-64
2023/08/30 02:28:53;;;;;;;11.25;7.15;;;;;;;14.85;98.30;100684.81;4823222;29;20130;-63
2023/08/30 02:31:41;;;;;;;12.75;6.70;;;;;;;14.81;98.82;100691.19;4813565;29;20171;-63
2023/08/30 02:34:29;;;;;;;11.10;7.13;;;;;;;14.79;99.00;100685.19;4794895;29;20055;-63
2023/08/30 02:37:17;;;;;;;15.10;7.55;;;;;;;14.80;99.46;100690.38;4809907;29;20054;-64
2023/08/30 02:40:06;;;;;;;19.40;7.50;;;;;;;14.81;98.92;100682.94;4808672;29;20046;-63
2023/08/30 02:42:54;;;;;;;11.43;7.00;;;;;;;14.77;99.39;100680.00;4806434;29;20050;-65
2023/08/30 02:45:42;;;;;;;13.10;7.50;;;;;;;14.81;99.61;100675.53;4808375;29;20580;-65
2023/08/30 02:48:35;;;;;;;12.23;7.30;;;;;;;14.86;99.32;100674.63;4798915;29;20415;-64
2023/08/30 02:51:23;;;;;;;11.95;6.53;;;;;;;14.88;99.21;100675.97;4783026;29;20092;-65
2023/08/30 02:54:13;;;;;;;10.82;7.15;;;;;;;14.85;99.45;100670.28;4826172;29;20050;-64
2023/08/30 02:57:01;;;;;;;11.70;6.72;;;;;;;14.86;99.41;100656.28;4826999;29;20050;-64
2023/08/30 02:59:49;;;;;;;10.15;7.07;;;;;;;14.82;99.55;100657.16;4805443;29;20054;-64
2023/08/30 03:02:38;;;;;;;11.35;6.53;;;;;;;14.77;99.80;100647.09;4794380;29;20351;-65
2023/08/30 03:05:26;;;;;;;12.73;7.07;;;;;;;14.71;100.00;100662.00;4807655;29;20058;-63
2023/08/30 03:08:15;;;;;;;12.93;6.85;;;;;;;14.70;100.00;100650.22;4794907;29;20527;-63
2023/08/30 03:11:10;;;;;;;11.98;7.70;;;;;;;14.68;100.00;100657.94;4820589;29;20520;-64
2023/08/30 03:14:03;;;;;;;10.98;7.00;;;;;;;14.61;100.00;100653.94;4799995;29;20477;-64
2023/08/30 03:16:52;;;;;;;10.60;7.13;;;;;;;14.61;100.00;100653.94;4812474;29;20051;-62
2023/08/30 03:19:40;;;;;;;12.73;7.30;;;;;;;14.63;100.00;100652.53;4806275;29;20058;-65
2023/08/30 03:22:29;;;;;;;12.30;7.20;;;;;;;14.63;100.00;100655.28;4812313;29;20081;-62
2023/08/30 03:25:17;;;;;;;11.85;6.88;;;;;;;14.60;100.00;100652.31;4812743;29;20138;-64
2023/08/30 03:28:05;;;;;;;13.13;7.30;;;;;;;14.58;100.00;100644.41;4814186;29;20051;-64
2023/08/30 03:30:54;;;;;;;9.85;6.47;;;;;;;14.58;100.00;100635.34;4812424;29;20519;-63
2023/08/30 03:33:43;;;;;;;10.95;7.35;;;;;;;14.58;100.00;100629.88;4811947;29;20512;-64
2023/08/30 03:36:34;;;;;;;11.15;6.15;;;;;;;14.59;100.00;100621.34;4810925;29;20420;-64
2023/08/30 03:39:24;;;;;;;10.65;7.25;;;;;;;14.56;100.00;100610.16;4817525;29;20055;-64
2023/08/30 03:42:12;;;;;;;9.82;6.47;;;;;;;14.59;100.00;100612.28;4803946;29;20043;-64
2023/08/30 03:45:00;;;;;;;15.52;7.30;;;;;;;14.60;100.00;100608.44;4799324;29;20053;-63
2023/08/30 03:47:48;;;;;;;10.85;6.75;;;;;;;14.62;100.00;100606.22;4811879;29;20519;-65
2023/08/30 03:50:36;;;;;;;9.15;6.20;;;;;;;14.60;100.00;100594.72;4798808;29;20054;-64
2023/08/30 03:53:24;;;;;;;11.00;6.90;;;;;;;14.56;100.00;100585.50;4809743;29;20137;-63
2023/08/30 03:56:12;;;;;;;11.60;7.18;;;;;;;14.55;100.00;100581.09;4811832;29;20062;-64
2023/08/30 03:59:00;;;;;;;12.27;6.82;;;;;;;14.54;100.00;100572.06;4810946;29;20099;-65
2023/08/30 04:01:49;;;;;;;10.13;6.85;;;;;;;14.55;100.00;100578.34;4792900;29;20095;-64
2023/08/30 04:04:37;;;;;;;10.45;6.95;;;;;;;14.54;100.00;100572.06;4793746;29;20055;-65
2023/08/30 04:07:25;;;;;;;13.52;7.85;;;;;;;14.55;100.00;100565.50;4795725;29;20047;-64
2023/08/30 04:10:13;;;;;;;9.80;6.38;;;;;;;14.56;100.00;100566.28;4788655;29;20135;-65
2023/08/30 04:13:02;;;;;;;10.50;7.35;;;;;;;14.55;100.00;100561.91;4786542;29;20055;-64
2023/08/30 04:15:51;;;;;;;11.25;7.13;;;;;;;14.54;100.00;100552.88;4786239;29;20047;-64
2023/08/30 04:18:39;;;;;;;11.73;6.80;;;;;;;14.53;100.00;100542.16;4798667;29;20052;-64
2023/08/30 04:21:27;;;;;;;11.70;7.18;;;;;;;14.48;100.00;100552.13;4793958;29;20126;-64
2023/08/30 04:24:15;;;;;;;12.60;7.00;;;;;;;14.49;100.00;100563.91;4791281;29;20059;-66
2023/08/30 04:27:04;;;;;;;12.15;6.70;;;;;;;14.53;100.00;100553.13;4804777;29;20049;-62
2023/08/30 04:29:53;;;;;;;10.68;7.20;;;;;;;14.53;100.00;100544.91;4792567;29;20408;-63
2023/08/30 04:32:41;;;;;;;11.80;7.13;;;;;;;14.49;100.00;100541.97;4777550;29;20092;-64
2023/08/30 04:35:30;;;;;;;11.75;7.63;;;;;;;14.47;100.00;100544.19;4779359;29;20051;-64
2023/08/30 04:38:19;;;;;;;14.45;7.47;;;;;;;14.41;100.00;100540.75;4794548;29;20054;-64
2023/08/30 04:41:08;;;;;;;11.50;6.95;;;;;;;14.33;100.00;100544.16;4798670;29;20062;-63
2023/08/30 04:43:57;;;;;;;14.13;7.28;;;;;;;14.36;100.00;100543.56;4800704;29;20412;-59
2023/08/30 04:46:44;;;;;;;11.13;7.25;;;;;;;14.41;100.00;100545.41;4824287;29;20094;-58
2023/08/30 04:49:33;;;;;;;12.00;7.60;;;;;;;14.46;100.00;100542.59;4814733;29;20200;-63
2023/08/30 04:52:22;;;;;;;11.18;7.18;;;;;;;14.46;100.00;100542.59;4802901;29;20058;-61
2023/08/30 04:55:10;;;;;;;11.07;7.47;;;;;;;14.41;100.00;100540.75;4818678;29;20079;-58
2023/08/30 04:57:59;;;;;;;9.18;6.43;;;;;;;14.38;100.00;100538.63;4807355;29;20449;-57
2023/08/30 05:00:51;;;;;;;11.82;8.02;;;;;;;14.35;100.00;100530.16;4809518;29;20112;-63
2023/08/30 05:03:40;;;;;;;12.52;7.88;;;;;;;14.37;100.00;100528.75;4803748;29;20122;-64
2023/08/30 05:06:31;;;;;;;14.57;8.10;;;;;;;14.40;100.00;100527.31;4817478;29;20047;-64
2023/08/30 05:09:22;;;;;;;11.57;8.00;;;;;;;14.40;100.00;100516.38;4822181;29;20062;-63
2023/08/30 05:12:10;;;;;;;14.02;8.20;;;;;;;14.38;100.00;100519.44;4809348;29;20054;-64
2023/08/30 05:14:58;;;;;;;12.70;7.88;;;;;;;14.44;100.00;100520.13;4795791;29;20062;-63
2023/08/30 05:17:48;;;;;;;12.65;8.15;;;;;;;14.48;100.00;100512.94;4814446;29;20414;-64
2023/08/30 05:20:36;;;;;;;11.90;7.72;;;;;;;14.51;100.00;100522.50;4796438;29;20051;-64
2023/08/30 05:23:24;;;;;;;13.10;8.70;;;;;;;14.51;100.00;100512.34;4811037;29;20078;-65
2023/08/30 05:26:12;;;;;;;14.32;8.75;;;;;;;14.53;100.00;100509.28;4797692;29;20057;-61
2023/08/30 05:29:00;;;;;;;11.60;8.02;;;;;;;14.52;100.00;100504.91;4831664;29;20061;-65
2023/08/30 05:31:48;;;;;;;14.40;9.55;;;;;;;14.50;100.00;100513.44;4804981;29;20111;-64
2023/08/30 05:34:48;;;;;;;12.93;8.70;;;;;;;14.51;100.00;100506.84;4803301;29;20104;-64
2023/08/30 05:37:59;;;;;;;12.52;7.88;;;;;;;14.55;100.00;100502.44;4815510;29;20054;-66
2023/08/30 05:41:10;;;;;;;12.73;8.80;;;;;;;14.57;100.00;100500.16;4815827;29;20057;-65
2023/08/30 05:43:58;;;;;;;12.07;8.52;;;;;;;14.57;100.00;100491.94;4783348;29;20090;-64
2023/08/30 05:46:46;;;;;;;13.15;8.50;;;;;;;14.58;100.00;100487.31;4783756;29;20151;-64
2023/08/30 05:49:34;;;;;;;13.95;9.23;;;;;;;14.60;100.00;100490.53;4802046;29;20526;-65
2023/08/30 05:52:25;;;;;;;13.65;8.85;;;;;;;14.62;100.00;100489.13;4145126;29;10000796;-62
2023/08/30 05:55:13;;;;;;;12.07;8.20;;;;;;;14.64;100.00;100488.81;4797156;29;20154;-64
2023/08/30 05:58:03;;;;;;;14.55;8.27;;;;;;;14.64;100.00;100495.09;4805438;29;20050;-64
2023/08/30 06:00:51;;;;;;;13.40;8.73;;;;;;;14.70;100.00;100495.84;4786896;29;20658;-65
2023/08/30 06:03:39;;;;;;;13.65;8.70;;;;;;;14.69;100.00;100485.97;4804200;29;20388;-65
2023/08/30 06:06:27;;;;;;;14.73;9.00;;;;;;;14.63;100.00;100488.00;4804230;29;20051;-65
2023/08/30 06:09:15;;;;;;;14.30;9.18;;;;;;;14.62;100.00;100488.31;4811587;29;20053;-64
2023/08/30 06:12:04;;;;;;;13.30;8.30;;;;;;;14.65;100.00;100490.47;4806698;29;20145;-64
2023/08/30 06:14:53;;;;;;;12.55;8.02;;;;;;;14.70;100.00;100496.66;4795681;29;20058;-63
2023/08/30 06:17:41;;;;;;;11.75;8.27;;;;;;;14.69;100.00;100491.44;4804967;29;20050;-65
2023/08/30 06:20:29;;;;;;;14.77;8.95;;;;;;;14.71;100.00;100481.00;4805055;29;20072;-65
2023/08/30 06:23:20;;;;;;;13.77;8.02;;;;;;;14.69;100.00;100483.22;4816785;29;20111;-64
2023/08/30 06:26:08;;;;;;;12.35;7.22;;;;;;;14.75;100.00;100486.69;4815358;29;20069;-62
2023/08/30 06:28:56;;;;;;;9.82;5.60;;;;;;;14.78;100.00;100489.63;4807313;29;20564;-64
2023/08/30 06:31:52;;;;;;;10.07;6.45;;;;;;;14.84;100.00;100482.09;4793406;29;20058;-65
2023/08/30 06:34:40;;;;;;;11.93;5.90;;;;;;;14.85;100.00;100479.06;4817975;29;20100;-64
2023/08/30 06:37:28;;;;;;;10.95;6.28;;;;;;;14.88;100.00;100477.66;4801863;29;20050;-65
2023/08/30 06:40:18;;;;;;;9.50;5.45;;;;;;;14.90;100.00;100484.44;4792273;29;20097;-66
2023/08/30 06:43:05;;;;;;;9.27;5.88;;;;;;;14.90;100.00;100481.72;4798924;29;20105;-64
2023/08/30 06:45:53;;;;;;;8.70;5.53;;;;;;;14.93;100.00;100487.72;4820407;29;20062;-65
2023/08/30 06:48:41;;;;;;;10.65;6.43;;;;;;;14.96;100.00;100478.84;4822360;29;20867;-65
2023/08/30 06:51:29;;;;;;;10.80;5.85;;;;;;;14.98;100.00;100487.59;4814346;29;20465;-66
2023/08/30 06:54:17;;;;;;;18.73;8.60;;;;;;;14.98;100.00;100482.13;4817670;29;20530;-64
2023/08/30 06:57:06;;;;;;;11.57;6.88;;;;;;;14.98;100.00;100493.09;4809176;29;20511;-64
2023/08/30 06:59:55;;;;;;;11.40;7.57;;;;;;;14.96;100.00;100495.31;4815615;29;20062;-64
2023/08/30 07:02:46;;;;;;;21.15;8.05;;;;;;;14.95;100.00;100496.44;4821555;29;20520;-64
2023/08/30 07:05:34;;;;;;;10.02;6.82;;;;;;;14.92;100.00;100495.13;4825464;29;20053;-64
2023/08/30 07:08:22;;;;;;;15.50;8.18;;;;;;;14.94;100.00;100492.09;4812838;29;20053;-64
2023/08/30 07:11:10;;;;;;;19.02;8.35;;;;;;;14.90;100.00;100492.69;4807979;29;20103;-64
2023/08/30 07:14:18;;;;;;;20.00;7.60;;;;;;;14.96;100.00;100487.09;4807521;29;20524;-64
2023/08/30 07:17:07;;;;;;;17.67;8.23;;;;;;;14.95;100.00;100493.72;4793523;29;20054;-64
2023/08/30 07:19:55;;;;;;;22.35;8.18;;;;;;;14.93;100.00;100488.50;4807204;29;20122;-64
2023/08/30 07:22:43;;;;;;;17.63;7.82;;;;;;;14.94;100.00;100478.38;4794869;29;20069;-64
2023/08/30 07:25:32;;;;;;;14.05;7.82;;;;;;;14.91;100.00;100466.91;4808799;29;20050;-64
2023/08/30 07:28:20;;;;;;;13.82;7.35;;;;;;;14.87;100.00;100454.91;4807498;29;20050;-63
2023/08/30 07:31:09;;;;;;;13.48;7.63;;;;;;;14.85;100.00;100456.31;4793551;29;20059;-64
2023/08/30 07:33:59;;;;;;;13.20;7.45;;;;;;;14.77;100.00;100454.28;4794100;29;20051;-64
2023/08/30 07:36:47;;;;;;;14.30;8.25;;;;;;;14.75;100.00;100438.16;4805840;29;20051;-64
2023/08/30 07:39:35;;;;;;;15.23;7.97;;;;;;;14.76;100.00;100441.69;4805244;29;20534;-63
2023/08/30 07:42:23;;;;;;;13.35;7.55;;;;;;;14.76;100.00;100437.00;4808288;29;20055;-65
2023/08/30 07:45:12;;;;;;;11.70;7.18;;;;;;;14.77;100.00;100443.31;4805695;29;20058;-65
2023/08/30 07:48:00;;;;;;;12.40;7.90;;;;;;;14.73;100.00;100440.38;4806394;29;20107;-64
2023/08/30 07:50:48;;;;;;;13.20;7.57;;;;;;;14.69;100.00;100436.59;4805496;29;20058;-64
2023/08/30 07:53:36;;;;;;;11.30;7.55;;;;;;;14.69;100.00;100431.13;4804430;29;20204;-64
2023/08/30 07:56:24;;;;;;;11.85;7.68;;;;;;;14.70;100.00;100432.75;4802422;29;20047;-65
2023/08/30 07:59:13;;;;;;;14.35;8.38;;;;;;;14.66;100.00;100420.78;4814922;29;20496;-64
2023/08/30 08:02:02;;;;;;;12.68;7.93;;;;;;;14.63;100.00;100415.91;4807542;29;20051;-64
2023/08/30 08:04:54;;;;;;;11.63;8.25;;;;;;;14.63;100.00;100413.16;4792426;29;20094;-64
2023/08/30 08:07:43;;;;;;;13.75;8.18;;;;;;;14.62;100.00;100417.00;4803069;29;20055;-64
2023/08/30 08:10:34;;;;;;;11.60;7.85;;;;;;;14.59;100.00;100414.88;4806475;29;20139;-64
2023/08/30 08:13:22;;;;;;;11.52;7.20;;;;;;;14.59;100.00;100415.69;4793249;29;20055;-65
2023/08/30 08:16:10;;;;;;;12.10;7.32;;;;;;;14.60;100.00;100417.34;4803725;29;20447;-66
2023/08/30 08:19:01;;;;;;;11.63;6.18;;;;;;;14.63;100.00;100413.16;4792380;29;20059;-65
2023/08/30 08:21:49;;;;;;;9.93;4.88;;;;;;;14.68;100.00;100415.81;4806703;29;20050;-64
2023/08/30 08:24:37;;;;;;;12.27;6.82;;;;;;;14.75;100.00;100402.50;4808149;29;20054;-64
2023/08/30 08:27:25;;;;;;;10.57;6.35;;;;;;;14.76;100.00;100406.84;4814897;29;20058;-65
2023/08/30 08:30:14;;;;;;;7.50;4.70;;;;;;;14.79;100.00;100405.41;4818050;29;20051;-65
2023/08/30 08:33:02;;;;;;;7.43;4.40;;;;;;;14.87;100.00;100401.97;4830109;29;20050;-65
2023/08/30 08:35:50;;;;;;;8.90;4.80;;;;;;;14.89;100.00;100402.47;4816056;29;20046;-65
2023/08/30 08:38:39;;;;;;;8.73;4.88;;;;;;;14.91;100.00;100401.06;4810375;29;20119;-65
2023/08/30 08:41:35;;;;;;;8.85;4.38;;;;;;;14.94;100.00;100404.31;4820561;29;20047;-65
2023/08/30 08:44:27;;;;;;;8.63;3.58;;;;;;;15.02;100.00;100395.34;4792883;29;20505;-64
2023/08/30 08:47:19;;;;;;;8.80;4.60;;;;;;;15.06;100.00;100391.66;4795496;29;20069;-64
2023/08/30 08:50:07;;;;;;;7.90;3.83;;;;;;;15.11;100.00;100388.00;4807206;29;20055;-64
2023/08/30 08:52:56;;;;;;;7.93;3.40;;;;;;;15.38;100.00;100386.28;4796998;29;20089;-64
2023/08/30 08:55:49;;;;;;;8.60;3.30;;;;;;;15.43;100.00;100388.91;4797231;29;20047;-64
2023/08/30 08:58:38;;;;;;;6.80;2.83;;;;;;;15.41;100.00;100391.16;4799667;29;20049;-64
2023/08/30 09:01:27;;;;;;;8.65;3.15;;;;;;;15.37;100.00;100388.22;4808749;29;20051;-64
2023/08/30 09:04:24;;;;;;;6.63;3.20;;;;;;;15.32;100.00;100383.66;4809390;29;20176;-64
2023/08/30 09:07:12;;;;;;;4.55;2.90;;;;;;;15.26;100.00;100384.91;4810947;29;20248;-63
2023/08/30 09:10:01;;;;;;;7.18;3.15;;;;;;;15.22;100.00;100386.63;4794551;29;20047;-64
2023/08/30 09:12:49;;;;;;;5.53;3.40;;;;;;;15.24;100.00;100392.63;4792916;29;20109;-64
2023/08/30 09:15:37;;;;;;;6.05;3.38;;;;;;;15.25;100.00;100387.94;4795032;29;20197;-63
2023/08/30 09:18:28;;;;;;;5.32;2.78;;;;;;;15.34;100.00;100388.81;4805414;29;20432;-61
2023/08/30 09:21:17;;;;;;;3.58;2.40;;;;;;;15.44;100.00;100391.34;4811341;29;20058;-65
2023/08/30 09:24:06;;;;;;;6.38;3.28;;;;;;;15.41;100.00;100386.47;4801940;29;20058;-64
2023/08/30 09:26:55;;;;;;;5.78;3.30;;;;;;;15.46;100.00;100393.78;4825606;29;20062;-60
2023/08/30 09:29:44;;;;;;;5.40;3.25;;;;;;;15.57;100.00;100389.66;4817033;29;20142;-63
2023/08/30 09:32:40;;;;;;;5.82;3.30;;;;;;;15.57;100.00;100386.91;4819360;29;20050;-63
2023/08/30 09:35:28;;;;;;;5.18;2.63;;;;;;;15.59;100.00;100392.91;4808055;29;20157;-64
2023/08/30 09:38:19;;;;;;;5.40;2.92;;;;;;;15.66;100.00;100392.47;4809253;29;20054;-63
2023/08/30 09:41:07;;;;;;;6.57;3.10;;;;;;;15.69;100.00;100392.66;4809945;29;20092;-64
2023/08/30 09:43:55;;;;;;;6.05;3.55;;;;;;;15.78;100.00;100395.50;4808525;29;20058;-62
2023/08/30 09:47:03;;;;;;;5.93;2.80;;;;;;;15.80;100.00;100382.22;4797344;29;20051;-65
2023/08/30 09:49:53;;;;;;;5.35;3.58;;;;;;;15.88;100.00;100383.44;4794350;29;20042;-64
2023/08/30 09:52:41;;;;;;;6.65;3.50;;;;;;;15.80;100.00;100386.91;4784165;29;20046;-65
2023/08/30 09:55:30;;;;;;;5.55;3.65;;;;;;;15.68;100.00;100385.53;4808199;29;20055;-65
2023/08/30 09:58:19;;;;;;;4.60;2.92;;;;;;;15.59;100.00;100381.94;4809836;29;20049;-63
2023/08/30 10:01:09;;;;;;;5.50;3.70;;;;;;;15.61;100.00;100376.94;4796452;29;20055;-65
2023/08/30 10:03:58;;;;;;;4.35;3.00;;;;;;;15.57;100.00;100381.44;4810399;29;20055;-64
2023/08/30 10:06:46;;;;;;;6.32;3.97;;;;;;;15.53;100.00;100391.41;4797457;29;20133;-64
2023/08/30 10:09:35;;;;;;;4.45;3.10;;;;;;;15.71;100.00;100378.66;4811084;29;20050;-65
2023/08/30 10:12:24;;;;;;;4.60;3.10;;;;;;;15.77;100.00;100375.44;4805102;29;20050;-64
2023/08/30 10:15:12;;;;;;;4.10;2.88;;;;;;;15.76;100.00;100375.78;4808650;29;20078;-64
2023/08/30 10:18:02;;;;;;;6.82;4.50;;;;;;;15.91;100.00;100369.06;4811099;29;20064;-64
2023/08/30 10:20:54;;;;;;;5.55;3.28;;;;;;;16.04;100.00;100365.41;4809892;29;20055;-65
2023/08/30 10:23:43;;;;;;;6.20;3.80;;;;;;;16.19;100.00;100373.25;4795824;29;20047;-64
2023/08/30 10:26:32;;;;;;;7.75;4.75;;;;;;;16.19;100.00;100367.75;4809108;29;20191;-63
2023/08/30 10:29:20;;;;;;;6.90;4.40;;;;;;;16.14;100.00;100358.84;4154574;29;10000754;-65
2023/08/30 10:32:09;;;;;;;7.57;4.68;;;;;;;16.13;100.00;100369.00;4803376;29;20066;-64
2023/08/30 10:35:00;;;;;;;7.03;4.43;;;;;;;16.14;100.00;100362.38;4803135;29;20053;-64
2023/08/30 10:37:55;;;;;;;7.35;4.63;;;;;;;16.19;100.00;100356.75;4807211;29;20078;-64
2023/08/30 10:40:48;;;;;;;6.85;4.90;;;;;;;16.26;100.00;100355.47;4790483;29;20074;-63
2023/08/30 10:43:37;;;;;;;6.50;4.35;;;;;;;16.33;100.00;100361.31;4799052;29;20075;-65
2023/08/30 10:46:33;;;;;;;7.55;5.15;;;;;;;16.38;100.00;100361.19;4800731;29;20423;-64
2023/08/30 10:49:22;;;;;;;5.60;3.92;;;;;;;16.42;100.00;100353.09;4773140;29;20116;-64
2023/08/30 10:52:12;;;;;;;5.65;3.80;;;;;;;16.42;100.00;100345.66;4801390;29;20120;-64
2023/08/30 10:55:11;;;;;;;6.53;3.95;;;;;;;16.44;100.00;100346.16;4803686;29;20401;-64
2023/08/30 10:58:02;;;;;;;8.88;4.82;;;;;;;16.47;100.00;100348.25;4804101;29;20066;-65
2023/08/30 11:00:51;;;;;;;7.90;5.57;;;;;;;16.49;100.00;100347.94;4806954;29;20071;-65
2023/08/30 11:03:40;;;;;;;8.70;5.35;;;;;;;16.52;100.00;100334.34;4786020;29;20115;-64
2023/08/30 11:06:28;;;;;;;7.93;5.18;;;;;;;16.49;100.00;100340.50;4794456;29;20101;-64
2023/08/30 11:09:17;;;;;;;8.18;4.90;;;;;;;16.43;100.00;100338.22;4793809;29;20051;-64
2023/08/30 11:12:06;;;;;;;7.35;4.45;;;;;;;16.36;100.00;100363.44;4807784;29;20130;-64
2023/08/30 11:14:55;;;;;;;9.20;4.90;;;;;;;16.34;100.00;100368.44;4807129;29;20047;-64
2023/08/30 11:17:43;;;;;;;6.90;3.97;;;;;;;16.29;100.00;100366.66;4793331;29;20070;-64
2023/08/30 11:20:32;;;;;;;8.38;4.53;;;;;;;16.27;100.00;100362.59;4781214;29;20054;-65
2023/08/30 11:23:20;;;;;;;5.82;3.70;;;;;;;16.25;100.00;100364.84;4806575;29;20046;-64
2023/08/30 11:26:08;;;;;;;7.90;3.85;;;;;;;16.25;100.00;100365.66;4812211;29;20073;-63
2023/08/30 11:28:56;;;;;;;8.68;3.78;;;;;;;16.29;100.00;100376.84;4789576;29;20070;-65
2023/08/30 11:31:45;;;;;;;6.90;3.63;;;;;;;16.29;100.00;100385.91;4788587;29;20051;-64
2023/08/30 11:34:33;;;;;;;7.88;3.80;;;;;;;16.29;100.00;100379.59;4803918;29;20520;-64
2023/08/30 11:37:21;;;;;;;7.57;3.40;;;;;;;16.33;100.00;100377.81;4809846;29;20553;-64
2023/08/30 11:40:11;;;;;;;7.00;3.50;;;;;;;16.36;100.00;100377.19;4815098;29;20063;-64
2023/08/30 11:43:02;;;;;;;6.75;3.70;;;;;;;16.43;100.00;100377.53;4811650;29;20050;-64
2023/08/30 11:45:56;;;;;;;9.13;4.07;;;;;;;16.54;100.00;100376.09;4810624;29;20059;-65
2023/08/30 11:48:46;;;;;;;8.25;3.80;;;;;;;16.61;100.00;100373.69;4797329;29;20055;-63
2023/08/30 11:51:34;;;;;;;12.32;3.92;;;;;;;16.72;100.00;100370.66;4806725;29;20184;-64
2023/08/30 11:54:23;;;;;;;9.98;3.95;;;;;;;16.84;100.00;100370.88;4807007;29;20560;-66
2023/08/30 11:57:11;;;;;;;8.48;3.45;;;;;;;16.95;100.00;100372.19;4797834;29;20463;-64
2023/08/30 12:00:09;;;;;;;8.32;3.55;;;;;;;16.98;100.00;100373.47;4807002;29;20074;-64
2023/08/30 12:02:58;;;;;;;9.32;4.15;;;;;;;17.04;100.00;100380.44;4793555;29;20130;-63
2023/08/30 12:05:47;;;;;;;10.27;3.90;;;;;;;17.04;100.00;100384.00;4796725;29;20154;-66
2023/08/30 12:08:35;;;;;;;12.93;4.72;;;;;;;17.04;100.00;100389.50;4791595;30;20053;-63
2023/08/30 12:11:23;;;;;;;8.85;3.90;;;;;;;16.99;100.00;100386.91;4792807;29;20055;-65
2023/08/30 12:14:11;;;;;;;11.60;3.75;;;;;;;16.97;100.00;100391.94;4786760;29;20180;-64
2023/08/30 12:17:00;;;;;;;9.38;3.60;;;;;;;16.94;100.00;100387.09;4796988;29;20054;-66
2023/08/30 12:19:56;;;;;;;8.40;3.20;;;;;;;16.94;100.00;100391.78;4791059;30;20054;-66
2023/08/30 12:22:45;;;;;;;8.15;2.95;;;;;;;16.96;100.00;100387.56;4794976;29;20428;-64
2023/08/30 12:25:33;;;;;;;9.50;3.08;;;;;;;16.99;100.00;100395.19;4796345;29;20105;-65
2023/08/30 12:28:21;;;;;;;15.20;4.22;;;;;;;16.96;98.49;100406.03;4790576;30;20131;-64
2023/08/30 12:31:10;;;;;;;10.57;3.60;;;;;;;16.93;97.42;100404.75;4791589;30;20447;-64
2023/08/30 12:33:58;;;;;;;12.80;3.47;;;;;;;17.01;99.06;100398.44;4804077;29;20062;-64
2023/08/30 12:36:46;;;;;;;15.73;4.30;;;;;;;17.09;98.96;100410.56;4796190;29;20630;-63
2023/08/30 12:39:34;;;;;;;12.77;4.28;;;;;;;17.13;99.00;100405.25;4797481;29;20189;-64
2023/08/30 12:42:24;;;;;;;9.60;3.42;;;;;;;17.15;100.00;100414.81;4797152;29;20050;-63
2023/08/30 12:45:12;;;;;;;7.97;3.20;;;;;;;17.20;97.05;100406.38;4795640;29;20062;-64
2023/08/30 12:48:00;;;;;;;10.52;3.17;;;;;;;17.24;94.28;100399.09;4791110;30;20047;-64
2023/08/30 12:50:48;;;;;;;9.05;3.15;;;;;;;17.30;93.56;100399.75;4790407;29;20134;-64
2023/08/30 12:53:36;;;;;;;8.18;2.97;;;;;;;17.37;94.92;100400.06;4791180;29;20043;-65
2023/08/30 12:56:25;;;;;;;8.90;3.28;;;;;;;17.43;95.89;100398.75;4790638;29;20054;-65